createdAt,value
2022-08-20T00:00:37.658Z,100
2022-08-20T00:15:33.507Z,100
2022-08-20T00:30:29.698Z,100
2022-08-20T00:45:26.300Z,100
2022-08-20T01:00:21.863Z,100
2022-08-20T01:15:17.788Z,100
2022-08-20T01:30:13.300Z,100
2022-08-20T01:45:09.310Z,100
2022-08-20T02:00:05.265Z,100
2022-08-20T02:15:01.271Z,100
2022-08-20T02:29:57.358Z,100
2022-08-20T02:44:53.421Z,100
2022-08-20T02:59:50.050Z,100
2022-08-20T03:14:46.218Z,100
2022-08-20T03:44:38.999Z,100
2022-08-20T03:59:35.715Z,100
2022-08-20T04:14:31.632Z,100
2022-08-20T04:29:32.057Z,100
2022-08-20T04:44:24.595Z,100
2022-08-20T04:59:20.415Z,100
2022-08-20T05:14:15.745Z,100
2022-08-20T05:29:11.931Z,100
2022-08-20T05:44:08.702Z,100
2022-08-20T05:59:04.874Z,100
2022-08-20T06:14:01.329Z,100
2022-08-20T06:28:57.501Z,100
2022-08-20T06:43:53.686Z,100
2022-08-20T06:58:50.469Z,100
2022-08-20T07:13:47.290Z,100
2022-08-20T07:28:43.780Z,100
2022-08-20T07:43:39.663Z,95.67
2022-08-20T08:13:32.502Z,71.75
2022-08-20T08:28:29.078Z,75.97
2022-08-20T08:43:25.438Z,73.6
2022-08-20T08:58:21.686Z,78.3
2022-08-20T09:13:17.522Z,68.38
2022-08-20T09:28:14.042Z,59.79
2022-08-20T09:43:10.844Z,58.98
2022-08-20T09:58:07.758Z,58.78
2022-08-20T10:13:05.102Z,53.82
2022-08-20T10:28:01.836Z,52.88
2022-08-20T10:42:59.076Z,52.15
2022-08-20T10:57:55.779Z,52.59
2022-08-20T11:12:52.149Z,54.64
2022-08-20T11:27:48.831Z,56.34
2022-08-20T11:42:58.591Z,48.54
2022-08-20T11:57:40.680Z,56.23
2022-08-20T12:12:36.643Z,52.46
2022-08-20T12:27:32.897Z,49.98
2022-08-20T12:42:29.047Z,48.72
2022-08-20T12:57:25.816Z,54.33
2022-08-20T13:12:21.818Z,46.86
2022-08-20T13:27:17.959Z,44.56
2022-08-20T13:42:13.893Z,45.58
2022-08-20T13:57:10.337Z,48.6
2022-08-20T14:12:05.810Z,49.04
2022-08-20T14:27:01.813Z,46.29
2022-08-20T14:41:58.351Z,43.95
2022-08-20T14:56:54.086Z,44.51
2022-08-20T15:11:50.071Z,43.89
2022-08-20T15:26:46.565Z,42.48
2022-08-20T15:41:42.753Z,41.13
2022-08-20T15:56:39.330Z,40.19
2022-08-20T16:11:35.771Z,39.61
2022-08-20T16:26:32.370Z,37.58
2022-08-20T16:41:28.242Z,38.4
2022-08-20T16:56:24.213Z,37.9
2022-08-20T17:11:20.611Z,38.98
2022-08-20T17:26:16.711Z,40.27
2022-08-20T17:41:16.712Z,43.89
2022-08-20T17:56:08.628Z,44.88
2022-08-20T18:11:04.831Z,47.29
2022-08-20T18:26:00.820Z,49.27
2022-08-20T18:40:56.743Z,50.47
2022-08-20T18:55:52.736Z,52.87
2022-08-20T19:10:48.859Z,52.37
2022-08-20T19:25:44.799Z,55.96
2022-08-20T19:40:43.571Z,62.26
2022-08-20T19:55:35.617Z,66.05
2022-08-20T20:10:32.625Z,69.06
2022-08-20T20:25:27.625Z,67.38
2022-08-20T20:40:23.482Z,72.51
2022-08-20T20:55:19.381Z,72.13
2022-08-20T21:10:15.245Z,75.44
2022-08-20T21:25:11.566Z,77.57
2022-08-20T21:40:07.196Z,75.85
2022-08-20T21:55:03.866Z,79.54
2022-08-20T22:09:59.555Z,81.07
2022-08-20T22:24:55.635Z,82.38
2022-08-20T22:39:51.472Z,83.97
2022-08-20T22:54:47.328Z,85.25
2022-08-20T23:09:43.321Z,87.55
2022-08-20T23:24:39.170Z,86.95
2022-08-20T23:39:35.297Z,90.08
2022-08-20T23:54:31.484Z,91.93
